sensor_id;sensor_type;location;lat;lon;timestamp;temperature;humidity
12268;DHT22;6196;48.398;11.736;2024-01-25T00:00:57;7.90;99.90
12268;DHT22;6196;48.398;11.736;2024-01-25T00:03:24;7.90;99.90
12268;DHT22;6196;48.398;11.736;2024-01-25T00:05:51;7.90;99.90
12268;DHT22;6196;48.398;11.736;2024-01-25T00:08:18;7.80;99.90
12268;DHT22;6196;48.398;11.736;2024-01-25T00:10:45;7.90;99.90
12268;DHT22;6196;48.398;11.736;2024-01-25T00:13:12;7.90;99.90
12268;DHT22;6196;48.398;11.736;2024-01-25T00:15:39;7.90;99.90
12268;DHT22;6196;48.398;11.736;2024-01-25T00:18:06;7.90;99.90
12268;DHT22;6196;48.398;11.736;2024-01-25T00:20:33;7.80;99.90
12268;DHT22;6196;48.398;11.736;2024-01-25T00:23:00;7.80;99.90
12268;DHT22;6196;48.398;11.736;2024-01-25T00:25:28;7.60;99.90
12268;DHT22;6196;48.398;11.736;2024-01-25T00:27:55;7.70;99.90
12268;DHT22;6196;48.398;11.736;2024-01-25T00:30:22;7.70;99.90
12268;DHT22;6196;48.398;11.736;2024-01-25T00:32:49;7.70;99.90
12268;DHT22;6196;48.398;11.736;2024-01-25T00:35:17;7.70;99.90
12268;DHT22;6196;48.398;11.736;2024-01-25T00:37:45;7.70;99.90
12268;DHT22;6196;48.398;11.736;2024-01-25T00:40:12;7.70;99.90
12268;DHT22;6196;48.398;11.736;2024-01-25T00:42:45;7.60;99.90
12268;DHT22;6196;48.398;11.736;2024-01-25T00:45:20;7.70;99.90
12268;DHT22;6196;48.398;11.736;2024-01-25T00:47:48;7.70;99.90
12268;DHT22;6196;48.398;11.736;2024-01-25T00:50:17;7.70;99.90
12268;DHT22;6196;48.398;11.736;2024-01-25T00:52:47;7.60;99.90
12268;DHT22;6196;48.398;11.736;2024-01-25T00:55:16;7.60;99.90
12268;DHT22;6196;48.398;11.736;2024-01-25T00:57:44;7.70;99.90
12268;DHT22;6196;48.398;11.736;2024-01-25T01:00:12;7.70;99.90
12268;DHT22;6196;48.398;11.736;2024-01-25T01:02:45;7.60;99.90
12268;DHT22;6196;48.398;11.736;2024-01-25T01:05:14;7.60;99.90
12268;DHT22;6196;48.398;11.736;2024-01-25T01:07:42;7.70;99.90
12268;DHT22;6196;48.398;11.736;2024-01-25T01:10:09;7.70;99.90
12268;DHT22;6196;48.398;11.736;2024-01-25T01:12:37;7.60;99.90
12268;DHT22;6196;48.398;11.736;2024-01-25T01:15:05;7.70;99.90
12268;DHT22;6196;48.398;11.736;2024-01-25T01:17:32;7.70;99.90
12268;DHT22;6196;48.398;11.736;2024-01-25T01:19:59;7.80;99.90
12268;DHT22;6196;48.398;11.736;2024-01-25T01:22:26;7.80;99.90
12268;DHT22;6196;48.398;11.736;2024-01-25T01:24:53;7.80;99.90
12268;DHT22;6196;48.398;11.736;2024-01-25T01:27:21;7.80;99.90
12268;DHT22;6196;48.398;11.736;2024-01-25T01:29:48;7.80;99.90
12268;DHT22;6196;48.398;11.736;2024-01-25T01:32:16;7.80;99.90
12268;DHT22;6196;48.398;11.736;2024-01-25T01:34:43;7.80;99.90
12268;DHT22;6196;48.398;11.736;2024-01-25T01:37:11;7.80;99.90
12268;DHT22;6196;48.398;11.736;2024-01-25T01:39:38;7.80;99.90
12268;DHT22;6196;48.398;11.736;2024-01-25T01:42:05;7.70;99.90
12268;DHT22;6196;48.398;11.736;2024-01-25T01:44:32;7.80;99.90
12268;DHT22;6196;48.398;11.736;2024-01-25T01:46:59;7.80;99.90
12268;DHT22;6196;48.398;11.736;2024-01-25T01:49:26;7.80;99.90
12268;DHT22;6196;48.398;11.736;2024-01-25T01:51:54;7.80;99.90
12268;DHT22;6196;48.398;11.736;2024-01-25T01:54:21;7.80;99.90
12268;DHT22;6196;48.398;11.736;2024-01-25T01:56:48;7.80;99.90
12268;DHT22;6196;48.398;11.736;2024-01-25T01:59:17;7.80;99.90
12268;DHT22;6196;48.398;11.736;2024-01-25T02:01:44;7.90;99.90
12268;DHT22;6196;48.398;11.736;2024-01-25T02:04:11;7.90;99.90
12268;DHT22;6196;48.398;11.736;2024-01-25T02:06:39;7.90;99.90
12268;DHT22;6196;48.398;11.736;2024-01-25T02:09:06;7.80;99.90
12268;DHT22;6196;48.398;11.736;2024-01-25T02:11:33;7.80;99.90
12268;DHT22;6196;48.398;11.736;2024-01-25T02:14:01;7.90;99.90
12268;DHT22;6196;48.398;11.736;2024-01-25T02:16:27;8.00;99.90
12268;DHT22;6196;48.398;11.736;2024-01-25T02:18:55;8.00;99.90
12268;DHT22;6196;48.398;11.736;2024-01-25T02:21:24;7.90;99.90
12268;DHT22;6196;48.398;11.736;2024-01-25T02:23:51;7.90;99.90
12268;DHT22;6196;48.398;11.736;2024-01-25T02:26:18;8.00;99.90
12268;DHT22;6196;48.398;11.736;2024-01-25T02:28:45;7.90;99.90
12268;DHT22;6196;48.398;11.736;2024-01-25T02:31:12;7.90;99.90
12268;DHT22;6196;48.398;11.736;2024-01-25T02:33:39;7.90;99.90
12268;DHT22;6196;48.398;11.736;2024-01-25T02:36:07;7.80;99.90
12268;DHT22;6196;48.398;11.736;2024-01-25T02:38:33;7.90;99.90
12268;DHT22;6196;48.398;11.736;2024-01-25T02:41:00;7.90;99.90
12268;DHT22;6196;48.398;11.736;2024-01-25T02:43:27;7.90;99.90
12268;DHT22;6196;48.398;11.736;2024-01-25T02:45:54;7.90;99.90
12268;DHT22;6196;48.398;11.736;2024-01-25T02:48:21;8.00;99.90
12268;DHT22;6196;48.398;11.736;2024-01-25T02:50:48;7.90;99.90
12268;DHT22;6196;48.398;11.736;2024-01-25T02:53:16;7.90;99.90
12268;DHT22;6196;48.398;11.736;2024-01-25T02:55:43;8.00;99.90
12268;DHT22;6196;48.398;11.736;2024-01-25T02:58:10;8.00;99.90
12268;DHT22;6196;48.398;11.736;2024-01-25T03:00:37;7.90;99.90
12268;DHT22;6196;48.398;11.736;2024-01-25T03:03:04;8.00;99.90
12268;DHT22;6196;48.398;11.736;2024-01-25T03:05:31;7.90;99.90
12268;DHT22;6196;48.398;11.736;2024-01-25T03:07:58;7.90;99.90
12268;DHT22;6196;48.398;11.736;2024-01-25T03:10:25;8.00;99.90
12268;DHT22;6196;48.398;11.736;2024-01-25T03:12:52;7.90;99.90
12268;DHT22;6196;48.398;11.736;2024-01-25T03:15:19;7.90;99.90
12268;DHT22;6196;48.398;11.736;2024-01-25T03:17:46;7.80;99.90
12268;DHT22;6196;48.398;11.736;2024-01-25T03:20:13;7.80;99.90
12268;DHT22;6196;48.398;11.736;2024-01-25T03:22:41;7.90;99.90
12268;DHT22;6196;48.398;11.736;2024-01-25T03:25:08;7.90;99.90
12268;DHT22;6196;48.398;11.736;2024-01-25T03:27:37;7.90;99.90
12268;DHT22;6196;48.398;11.736;2024-01-25T03:30:04;7.90;99.90
12268;DHT22;6196;48.398;11.736;2024-01-25T03:32:35;7.90;99.90
12268;DHT22;6196;48.398;11.736;2024-01-25T03:35:02;7.90;99.90
12268;DHT22;6196;48.398;11.736;2024-01-25T03:37:30;7.90;99.90
12268;DHT22;6196;48.398;11.736;2024-01-25T03:39:57;7.90;99.90
12268;DHT22;6196;48.398;11.736;2024-01-25T03:42:24;7.80;99.90
12268;DHT22;6196;48.398;11.736;2024-01-25T03:44:52;7.80;99.90
12268;DHT22;6196;48.398;11.736;2024-01-25T03:47:19;7.80;99.90
12268;DHT22;6196;48.398;11.736;2024-01-25T03:49:45;7.80;99.90
12268;DHT22;6196;48.398;11.736;2024-01-25T03:52:13;7.80;99.90
12268;DHT22;6196;48.398;11.736;2024-01-25T03:54:40;7.80;99.90
12268;DHT22;6196;48.398;11.736;2024-01-25T03:57:07;7.70;99.90
12268;DHT22;6196;48.398;11.736;2024-01-25T03:59:34;7.70;99.90
12268;DHT22;6196;48.398;11.736;2024-01-25T04:02:01;7.70;99.90
12268;DHT22;6196;48.398;11.736;2024-01-25T04:04:28;7.60;99.90
12268;DHT22;6196;48.398;11.736;2024-01-25T04:06:55;7.60;99.90
12268;DHT22;6196;48.398;11.736;2024-01-25T04:09:22;7.60;99.90
12268;DHT22;6196;48.398;11.736;2024-01-25T04:11:49;7.60;99.90
12268;DHT22;6196;48.398;11.736;2024-01-25T04:14:16;7.60;99.90
12268;DHT22;6196;48.398;11.736;2024-01-25T04:16:43;7.60;99.90
12268;DHT22;6196;48.398;11.736;2024-01-25T04:19:13;7.60;99.90
12268;DHT22;6196;48.398;11.736;2024-01-25T04:21:40;7.70;99.90
12268;DHT22;6196;48.398;11.736;2024-01-25T04:24:07;7.60;99.90
12268;DHT22;6196;48.398;11.736;2024-01-25T04:26:34;7.60;99.90
12268;DHT22;6196;48.398;11.736;2024-01-25T04:29:01;7.60;99.90
12268;DHT22;6196;48.398;11.736;2024-01-25T04:31:28;7.60;99.90
12268;DHT22;6196;48.398;11.736;2024-01-25T04:33:55;7.60;99.90
12268;DHT22;6196;48.398;11.736;2024-01-25T04:36:22;7.60;99.90
12268;DHT22;6196;48.398;11.736;2024-01-25T04:38:49;7.60;99.90
12268;DHT22;6196;48.398;11.736;2024-01-25T04:41:16;7.70;99.90
12268;DHT22;6196;48.398;11.736;2024-01-25T04:43:43;7.60;99.90
12268;DHT22;6196;48.398;11.736;2024-01-25T04:46:11;7.70;99.90
12268;DHT22;6196;48.398;11.736;2024-01-25T04:48:38;7.60;99.90
12268;DHT22;6196;48.398;11.736;2024-01-25T04:51:06;7.60;99.90
12268;DHT22;6196;48.398;11.736;2024-01-25T04:53:33;7.60;99.90
12268;DHT22;6196;48.398;11.736;2024-01-25T04:56:00;7.60;99.90
12268;DHT22;6196;48.398;11.736;2024-01-25T04:58:28;7.60;99.90
12268;DHT22;6196;48.398;11.736;2024-01-25T05:00:55;7.50;99.90
12268;DHT22;6196;48.398;11.736;2024-01-25T05:03:22;7.50;99.90
12268;DHT22;6196;48.398;11.736;2024-01-25T05:05:49;7.50;99.90
12268;DHT22;6196;48.398;11.736;2024-01-25T05:08:16;7.60;99.90
12268;DHT22;6196;48.398;11.736;2024-01-25T05:10:43;7.70;99.90
12268;DHT22;6196;48.398;11.736;2024-01-25T05:13:11;7.60;99.90
12268;DHT22;6196;48.398;11.736;2024-01-25T05:15:38;7.60;99.90
12268;DHT22;6196;48.398;11.736;2024-01-25T05:18:06;7.60;99.90
12268;DHT22;6196;48.398;11.736;2024-01-25T05:20:33;7.60;99.90
12268;DHT22;6196;48.398;11.736;2024-01-25T05:23:04;7.70;99.90
12268;DHT22;6196;48.398;11.736;2024-01-25T05:25:32;7.60;99.90
12268;DHT22;6196;48.398;11.736;2024-01-25T05:27:59;7.70;99.90
12268;DHT22;6196;48.398;11.736;2024-01-25T05:30:27;7.50;99.90
12268;DHT22;6196;48.398;11.736;2024-01-25T05:32:54;7.60;99.90
12268;DHT22;6196;48.398;11.736;2024-01-25T05:35:22;7.70;99.90
12268;DHT22;6196;48.398;11.736;2024-01-25T05:37:50;7.60;99.90
12268;DHT22;6196;48.398;11.736;2024-01-25T05:40:18;7.60;99.90
12268;DHT22;6196;48.398;11.736;2024-01-25T05:42:45;7.50;99.90
12268;DHT22;6196;48.398;11.736;2024-01-25T05:45:12;7.50;99.90
12268;DHT22;6196;48.398;11.736;2024-01-25T05:47:39;7.30;99.90
12268;DHT22;6196;48.398;11.736;2024-01-25T05:50:06;7.20;99.90
12268;DHT22;6196;48.398;11.736;2024-01-25T05:52:34;7.10;99.90
12268;DHT22;6196;48.398;11.736;2024-01-25T05:55:04;7.00;99.90
12268;DHT22;6196;48.398;11.736;2024-01-25T05:57:34;7.00;99.90
12268;DHT22;6196;48.398;11.736;2024-01-25T06:00:02;6.80;99.90
12268;DHT22;6196;48.398;11.736;2024-01-25T06:02:29;6.90;99.90
12268;DHT22;6196;48.398;11.736;2024-01-25T06:04:57;6.90;99.90
12268;DHT22;6196;48.398;11.736;2024-01-25T06:07:26;6.80;99.90
12268;DHT22;6196;48.398;11.736;2024-01-25T06:09:53;6.80;99.90
12268;DHT22;6196;48.398;11.736;2024-01-25T06:12:21;6.70;99.90
12268;DHT22;6196;48.398;11.736;2024-01-25T06:14:48;6.60;99.90
12268;DHT22;6196;48.398;11.736;2024-01-25T06:17:15;6.60;99.90
12268;DHT22;6196;48.398;11.736;2024-01-25T06:19:42;6.50;99.90
12268;DHT22;6196;48.398;11.736;2024-01-25T06:22:09;6.50;99.90
12268;DHT22;6196;48.398;11.736;2024-01-25T06:24:39;6.60;99.90
12268;DHT22;6196;48.398;11.736;2024-01-25T06:27:06;6.50;99.90
12268;DHT22;6196;48.398;11.736;2024-01-25T06:29:33;6.50;99.90
12268;DHT22;6196;48.398;11.736;2024-01-25T06:32:00;6.60;99.90
12268;DHT22;6196;48.398;11.736;2024-01-25T06:34:32;6.60;99.90
12268;DHT22;6196;48.398;11.736;2024-01-25T06:37:00;6.60;99.90
12268;DHT22;6196;48.398;11.736;2024-01-25T06:39:26;6.60;99.90
12268;DHT22;6196;48.398;11.736;2024-01-25T06:41:53;6.60;99.90
12268;DHT22;6196;48.398;11.736;2024-01-25T06:44:20;6.60;99.90
12268;DHT22;6196;48.398;11.736;2024-01-25T06:46:47;6.70;99.90
12268;DHT22;6196;48.398;11.736;2024-01-25T06:49:14;6.70;99.90
12268;DHT22;6196;48.398;11.736;2024-01-25T06:51:41;6.70;99.90
12268;DHT22;6196;48.398;11.736;2024-01-25T06:54:08;6.70;99.90
12268;DHT22;6196;48.398;11.736;2024-01-25T06:56:36;6.70;99.90
12268;DHT22;6196;48.398;11.736;2024-01-25T06:59:03;6.70;99.90
12268;DHT22;6196;48.398;11.736;2024-01-25T07:01:30;6.70;99.90
12268;DHT22;6196;48.398;11.736;2024-01-25T07:03:59;6.80;99.90
12268;DHT22;6196;48.398;11.736;2024-01-25T07:06:27;6.90;99.90
12268;DHT22;6196;48.398;11.736;2024-01-25T07:08:55;6.90;99.90
12268;DHT22;6196;48.398;11.736;2024-01-25T07:11:22;6.90;99.90
12268;DHT22;6196;48.398;11.736;2024-01-25T07:13:49;7.00;99.90
12268;DHT22;6196;48.398;11.736;2024-01-25T07:16:16;7.00;99.90
12268;DHT22;6196;48.398;11.736;2024-01-25T07:18:43;7.00;99.90
12268;DHT22;6196;48.398;11.736;2024-01-25T07:21:10;7.00;99.90
12268;DHT22;6196;48.398;11.736;2024-01-25T07:23:37;7.10;99.90
12268;DHT22;6196;48.398;11.736;2024-01-25T07:26:04;7.10;99.90
12268;DHT22;6196;48.398;11.736;2024-01-25T07:28:32;7.00;99.90
12268;DHT22;6196;48.398;11.736;2024-01-25T07:30:59;6.90;99.90
12268;DHT22;6196;48.398;11.736;2024-01-25T07:33:26;6.90;99.90
12268;DHT22;6196;48.398;11.736;2024-01-25T07:35:54;7.00;99.90
12268;DHT22;6196;48.398;11.736;2024-01-25T07:38:22;7.10;99.90
12268;DHT22;6196;48.398;11.736;2024-01-25T07:40:49;7.20;99.90
12268;DHT22;6196;48.398;11.736;2024-01-25T07:43:15;7.10;99.90
12268;DHT22;6196;48.398;11.736;2024-01-25T07:45:43;7.10;99.90
12268;DHT22;6196;48.398;11.736;2024-01-25T07:48:09;7.20;99.90
12268;DHT22;6196;48.398;11.736;2024-01-25T07:50:41;7.10;99.90
12268;DHT22;6196;48.398;11.736;2024-01-25T07:53:09;7.20;99.90
12268;DHT22;6196;48.398;11.736;2024-01-25T07:55:36;7.20;99.90
12268;DHT22;6196;48.398;11.736;2024-01-25T07:58:03;7.30;99.90
12268;DHT22;6196;48.398;11.736;2024-01-25T08:00:30;7.40;99.90
12268;DHT22;6196;48.398;11.736;2024-01-25T08:02:57;7.20;99.90
12268;DHT22;6196;48.398;11.736;2024-01-25T08:05:24;7.20;99.90
12268;DHT22;6196;48.398;11.736;2024-01-25T08:08:06;7.50;99.90
12268;DHT22;6196;48.398;11.736;2024-01-25T08:10:34;8.00;99.90
12268;DHT22;6196;48.398;11.736;2024-01-25T08:13:01;8.30;99.90
12268;DHT22;6196;48.398;11.736;2024-01-25T08:15:33;8.40;99.90
12268;DHT22;6196;48.398;11.736;2024-01-25T08:18:01;8.30;99.90
12268;DHT22;6196;48.398;11.736;2024-01-25T08:20:28;8.10;99.90
12268;DHT22;6196;48.398;11.736;2024-01-25T08:22:55;8.10;99.90
12268;DHT22;6196;48.398;11.736;2024-01-25T08:25:23;8.00;99.90
12268;DHT22;6196;48.398;11.736;2024-01-25T08:27:50;8.10;99.90
12268;DHT22;6196;48.398;11.736;2024-01-25T08:30:18;8.60;99.90
12268;DHT22;6196;48.398;11.736;2024-01-25T08:32:45;9.20;99.90
12268;DHT22;6196;48.398;11.736;2024-01-25T08:35:12;9.70;99.90
12268;DHT22;6196;48.398;11.736;2024-01-25T08:37:39;9.90;99.90
12268;DHT22;6196;48.398;11.736;2024-01-25T08:40:07;9.80;99.90
12268;DHT22;6196;48.398;11.736;2024-01-25T08:42:36;9.60;99.90
12268;DHT22;6196;48.398;11.736;2024-01-25T08:45:04;9.80;99.90
12268;DHT22;6196;48.398;11.736;2024-01-25T08:47:36;9.70;99.90
12268;DHT22;6196;48.398;11.736;2024-01-25T08:50:04;9.20;99.90
12268;DHT22;6196;48.398;11.736;2024-01-25T08:52:37;9.40;99.90
12268;DHT22;6196;48.398;11.736;2024-01-25T08:55:04;9.70;99.90
12268;DHT22;6196;48.398;11.736;2024-01-25T08:57:31;9.50;99.90
12268;DHT22;6196;48.398;11.736;2024-01-25T08:59:59;9.70;99.90
12268;DHT22;6196;48.398;11.736;2024-01-25T09:02:27;9.90;99.90
12268;DHT22;6196;48.398;11.736;2024-01-25T09:04:56;10.00;99.90
12268;DHT22;6196;48.398;11.736;2024-01-25T09:07:23;9.90;99.90
12268;DHT22;6196;48.398;11.736;2024-01-25T09:09:50;9.80;99.90
12268;DHT22;6196;48.398;11.736;2024-01-25T09:12:17;9.60;99.90
12268;DHT22;6196;48.398;11.736;2024-01-25T09:14:44;9.70;99.90
12268;DHT22;6196;48.398;11.736;2024-01-25T09:17:11;9.70;99.90
12268;DHT22;6196;48.398;11.736;2024-01-25T09:19:40;9.80;99.90
12268;DHT22;6196;48.398;11.736;2024-01-25T09:22:08;10.00;99.90
12268;DHT22;6196;48.398;11.736;2024-01-25T09:24:36;10.50;99.90
12268;DHT22;6196;48.398;11.736;2024-01-25T09:27:06;10.60;99.90
12268;DHT22;6196;48.398;11.736;2024-01-25T09:29:34;11.10;99.90
12268;DHT22;6196;48.398;11.736;2024-01-25T09:32:01;12.10;99.90
12268;DHT22;6196;48.398;11.736;2024-01-25T09:34:28;12.40;99.90
12268;DHT22;6196;48.398;11.736;2024-01-25T09:36:57;12.30;99.90
12268;DHT22;6196;48.398;11.736;2024-01-25T09:39:24;12.30;99.90
12268;DHT22;6196;48.398;11.736;2024-01-25T09:41:51;12.20;99.90
12268;DHT22;6196;48.398;11.736;2024-01-25T09:44:18;12.10;99.90
12268;DHT22;6196;48.398;11.736;2024-01-25T09:46:45;11.90;99.90
12268;DHT22;6196;48.398;11.736;2024-01-25T09:49:12;11.80;99.90
12268;DHT22;6196;48.398;11.736;2024-01-25T09:51:42;11.50;99.90
12268;DHT22;6196;48.398;11.736;2024-01-25T09:54:09;11.40;99.90
12268;DHT22;6196;48.398;11.736;2024-01-25T09:56:36;11.60;99.90
12268;DHT22;6196;48.398;11.736;2024-01-25T09:59:07;11.60;99.90
12268;DHT22;6196;48.398;11.736;2024-01-25T10:01:35;11.90;99.90
12268;DHT22;6196;48.398;11.736;2024-01-25T10:04:06;11.80;99.90
12268;DHT22;6196;48.398;11.736;2024-01-25T10:06:34;12.40;99.90
12268;DHT22;6196;48.398;11.736;2024-01-25T10:09:03;13.00;99.90
12268;DHT22;6196;48.398;11.736;2024-01-25T10:11:31;13.60;99.90
12268;DHT22;6196;48.398;11.736;2024-01-25T10:14:06;13.20;99.90
12268;DHT22;6196;48.398;11.736;2024-01-25T10:16:35;12.20;99.90
12268;DHT22;6196;48.398;11.736;2024-01-25T10:19:06;11.70;99.90
12268;DHT22;6196;48.398;11.736;2024-01-25T10:21:38;11.10;99.90
12268;DHT22;6196;48.398;11.736;2024-01-25T10:24:09;10.80;99.90
12268;DHT22;6196;48.398;11.736;2024-01-25T10:26:36;11.00;99.90
12268;DHT22;6196;48.398;11.736;2024-01-25T10:29:04;11.20;99.90
12268;DHT22;6196;48.398;11.736;2024-01-25T10:31:32;10.90;99.90
12268;DHT22;6196;48.398;11.736;2024-01-25T10:34:00;11.30;99.90
12268;DHT22;6196;48.398;11.736;2024-01-25T10:36:27;11.30;99.90
12268;DHT22;6196;48.398;11.736;2024-01-25T10:38:56;11.00;99.90
12268;DHT22;6196;48.398;11.736;2024-01-25T10:41:24;10.90;99.90
12268;DHT22;6196;48.398;11.736;2024-01-25T10:43:54;11.90;99.90
12268;DHT22;6196;48.398;11.736;2024-01-25T10:46:22;12.50;99.90
12268;DHT22;6196;48.398;11.736;2024-01-25T10:48:50;13.40;99.90
12268;DHT22;6196;48.398;11.736;2024-01-25T10:51:18;13.40;99.90
12268;DHT22;6196;48.398;11.736;2024-01-25T10:53:46;13.00;99.90
12268;DHT22;6196;48.398;11.736;2024-01-25T10:56:14;13.40;99.90
12268;DHT22;6196;48.398;11.736;2024-01-25T10:58:41;13.80;99.90
12268;DHT22;6196;48.398;11.736;2024-01-25T11:01:09;13.50;99.90
12268;DHT22;6196;48.398;11.736;2024-01-25T11:03:42;14.00;99.90
12268;DHT22;6196;48.398;11.736;2024-01-25T11:06:14;14.60;99.90
12268;DHT22;6196;48.398;11.736;2024-01-25T11:08:41;15.20;99.90
12268;DHT22;6196;48.398;11.736;2024-01-25T11:11:10;14.70;99.90
12268;DHT22;6196;48.398;11.736;2024-01-25T11:13:42;13.90;99.90
12268;DHT22;6196;48.398;11.736;2024-01-25T11:18:55;11.90;99.90
12268;DHT22;6196;48.398;11.736;2024-01-25T11:21:38;11.20;99.90
12268;DHT22;6196;48.398;11.736;2024-01-25T11:24:21;10.50;99.90
12268;DHT22;6196;48.398;11.736;2024-01-25T11:26:50;10.60;99.90
12268;DHT22;6196;48.398;11.736;2024-01-25T11:29:18;12.00;99.90
12268;DHT22;6196;48.398;11.736;2024-01-25T11:31:48;13.00;99.90
12268;DHT22;6196;48.398;11.736;2024-01-25T11:34:17;13.70;99.90
12268;DHT22;6196;48.398;11.736;2024-01-25T11:36:47;13.60;99.90
12268;DHT22;6196;48.398;11.736;2024-01-25T11:39:16;13.60;99.90
12268;DHT22;6196;48.398;11.736;2024-01-25T11:41:44;14.30;99.90
12268;DHT22;6196;48.398;11.736;2024-01-25T11:44:12;14.90;99.90
12268;DHT22;6196;48.398;11.736;2024-01-25T11:46:40;14.90;99.90
12268;DHT22;6196;48.398;11.736;2024-01-25T11:49:07;13.80;99.90
12268;DHT22;6196;48.398;11.736;2024-01-25T11:51:35;13.40;99.90
12268;DHT22;6196;48.398;11.736;2024-01-25T11:54:02;13.10;99.90
12268;DHT22;6196;48.398;11.736;2024-01-25T11:56:35;13.00;99.90
12268;DHT22;6196;48.398;11.736;2024-01-25T11:59:08;12.40;99.90
12268;DHT22;6196;48.398;11.736;2024-01-25T12:01:35;12.10;99.90
12268;DHT22;6196;48.398;11.736;2024-01-25T12:04:02;11.80;99.90
12268;DHT22;6196;48.398;11.736;2024-01-25T12:06:31;11.60;99.90
12268;DHT22;6196;48.398;11.736;2024-01-25T12:09:06;11.20;99.90
12268;DHT22;6196;48.398;11.736;2024-01-25T12:11:35;10.90;99.90
12268;DHT22;6196;48.398;11.736;2024-01-25T12:14:02;11.90;99.90
12268;DHT22;6196;48.398;11.736;2024-01-25T12:16:29;12.90;99.90
12268;DHT22;6196;48.398;11.736;2024-01-25T12:18:58;13.90;99.90
12268;DHT22;6196;48.398;11.736;2024-01-25T12:21:26;14.60;99.90
12268;DHT22;6196;48.398;11.736;2024-01-25T12:23:53;15.30;99.90
12268;DHT22;6196;48.398;11.736;2024-01-25T12:26:20;15.20;99.90
12268;DHT22;6196;48.398;11.736;2024-01-25T12:28:47;14.40;99.90
12268;DHT22;6196;48.398;11.736;2024-01-25T12:31:15;13.90;99.90
12268;DHT22;6196;48.398;11.736;2024-01-25T12:33:42;13.10;99.90
12268;DHT22;6196;48.398;11.736;2024-01-25T12:36:10;12.30;99.90
12268;DHT22;6196;48.398;11.736;2024-01-25T12:38:38;11.40;99.90
12268;DHT22;6196;48.398;11.736;2024-01-25T12:41:05;11.40;99.90
12268;DHT22;6196;48.398;11.736;2024-01-25T12:43:32;11.40;99.90
12268;DHT22;6196;48.398;11.736;2024-01-25T12:46:00;12.20;99.90
12268;DHT22;6196;48.398;11.736;2024-01-25T12:48:44;12.80;99.90
12268;DHT22;6196;48.398;11.736;2024-01-25T12:51:13;13.70;99.90
12268;DHT22;6196;48.398;11.736;2024-01-25T12:53:41;14.30;99.90
12268;DHT22;6196;48.398;11.736;2024-01-25T12:56:08;14.30;99.90
12268;DHT22;6196;48.398;11.736;2024-01-25T12:58:36;14.20;99.90
12268;DHT22;6196;48.398;11.736;2024-01-25T13:01:04;14.40;99.90
12268;DHT22;6196;48.398;11.736;2024-01-25T13:03:32;13.90;99.90
12268;DHT22;6196;48.398;11.736;2024-01-25T13:06:00;13.20;99.90
12268;DHT22;6196;48.398;11.736;2024-01-25T13:08:30;12.20;99.90
12268;DHT22;6196;48.398;11.736;2024-01-25T13:10:57;11.90;99.90
12268;DHT22;6196;48.398;11.736;2024-01-25T13:13:24;11.20;99.90
12268;DHT22;6196;48.398;11.736;2024-01-25T13:15:52;11.10;99.90
12268;DHT22;6196;48.398;11.736;2024-01-25T13:18:19;11.30;99.90
12268;DHT22;6196;48.398;11.736;2024-01-25T13:20:46;11.20;99.90
12268;DHT22;6196;48.398;11.736;2024-01-25T13:23:14;11.60;99.90
12268;DHT22;6196;48.398;11.736;2024-01-25T13:25:41;11.90;99.90
12268;DHT22;6196;48.398;11.736;2024-01-25T13:28:08;12.00;99.90
12268;DHT22;6196;48.398;11.736;2024-01-25T13:30:35;12.20;99.90
12268;DHT22;6196;48.398;11.736;2024-01-25T13:33:02;12.20;99.90
12268;DHT22;6196;48.398;11.736;2024-01-25T13:35:29;12.20;99.90
12268;DHT22;6196;48.398;11.736;2024-01-25T13:37:56;12.00;99.90
12268;DHT22;6196;48.398;11.736;2024-01-25T13:40:28;12.20;99.90
12268;DHT22;6196;48.398;11.736;2024-01-25T13:42:55;12.10;99.90
12268;DHT22;6196;48.398;11.736;2024-01-25T13:45:22;12.10;99.90
12268;DHT22;6196;48.398;11.736;2024-01-25T13:47:49;12.10;99.90
12268;DHT22;6196;48.398;11.736;2024-01-25T13:50:16;12.10;99.90
12268;DHT22;6196;48.398;11.736;2024-01-25T13:52:43;12.30;99.90
12268;DHT22;6196;48.398;11.736;2024-01-25T13:55:10;12.50;99.90
12268;DHT22;6196;48.398;11.736;2024-01-25T13:57:37;12.40;99.90
12268;DHT22;6196;48.398;11.736;2024-01-25T14:00:04;12.50;99.90
12268;DHT22;6196;48.398;11.736;2024-01-25T14:02:32;12.60;99.90
12268;DHT22;6196;48.398;11.736;2024-01-25T14:04:59;12.30;99.90
12268;DHT22;6196;48.398;11.736;2024-01-25T14:07:27;12.20;99.90
12268;DHT22;6196;48.398;11.736;2024-01-25T14:09:54;11.90;99.90
12268;DHT22;6196;48.398;11.736;2024-01-25T14:12:21;11.60;99.90
12268;DHT22;6196;48.398;11.736;2024-01-25T14:14:48;11.30;99.90
12268;DHT22;6196;48.398;11.736;2024-01-25T14:17:15;11.10;99.90
12268;DHT22;6196;48.398;11.736;2024-01-25T14:19:42;11.00;99.90
12268;DHT22;6196;48.398;11.736;2024-01-25T14:22:09;10.90;99.90
12268;DHT22;6196;48.398;11.736;2024-01-25T14:24:54;11.00;99.90
12268;DHT22;6196;48.398;11.736;2024-01-25T14:27:22;10.80;99.90
12268;DHT22;6196;48.398;11.736;2024-01-25T14:29:49;10.90;99.90
12268;DHT22;6196;48.398;11.736;2024-01-25T14:32:17;11.00;99.90
12268;DHT22;6196;48.398;11.736;2024-01-25T14:34:46;11.00;99.90
12268;DHT22;6196;48.398;11.736;2024-01-25T14:37:13;11.00;99.90
12268;DHT22;6196;48.398;11.736;2024-01-25T14:39:40;11.10;99.90
12268;DHT22;6196;48.398;11.736;2024-01-25T14:42:17;11.00;99.90
12268;DHT22;6196;48.398;11.736;2024-01-25T14:44:46;10.80;99.90
12268;DHT22;6196;48.398;11.736;2024-01-25T14:47:13;10.70;99.90
12268;DHT22;6196;48.398;11.736;2024-01-25T14:49:43;10.60;99.90
12268;DHT22;6196;48.398;11.736;2024-01-25T14:52:10;10.60;99.90
12268;DHT22;6196;48.398;11.736;2024-01-25T14:54:37;10.60;99.90
12268;DHT22;6196;48.398;11.736;2024-01-25T14:57:04;10.80;99.90
12268;DHT22;6196;48.398;11.736;2024-01-25T14:59:31;10.70;99.90
12268;DHT22;6196;48.398;11.736;2024-01-25T15:01:58;10.60;99.90
12268;DHT22;6196;48.398;11.736;2024-01-25T15:04:25;10.40;99.90
12268;DHT22;6196;48.398;11.736;2024-01-25T15:06:56;10.40;99.90
12268;DHT22;6196;48.398;11.736;2024-01-25T15:09:23;10.30;99.90
12268;DHT22;6196;48.398;11.736;2024-01-25T15:11:50;10.10;99.90
12268;DHT22;6196;48.398;11.736;2024-01-25T15:14:17;9.90;99.90
12268;DHT22;6196;48.398;11.736;2024-01-25T15:16:44;9.60;99.90
12268;DHT22;6196;48.398;11.736;2024-01-25T15:19:11;9.60;99.90
12268;DHT22;6196;48.398;11.736;2024-01-25T15:21:38;9.40;99.90
12268;DHT22;6196;48.398;11.736;2024-01-25T15:24:05;9.40;99.90
12268;DHT22;6196;48.398;11.736;2024-01-25T15:26:32;9.20;99.90
12268;DHT22;6196;48.398;11.736;2024-01-25T15:28:59;9.30;99.90
12268;DHT22;6196;48.398;11.736;2024-01-25T15:31:26;9.10;99.90
12268;DHT22;6196;48.398;11.736;2024-01-25T15:33:53;9.00;99.90
12268;DHT22;6196;48.398;11.736;2024-01-25T15:36:22;8.90;99.90
12268;DHT22;6196;48.398;11.736;2024-01-25T15:38:49;8.80;99.90
12268;DHT22;6196;48.398;11.736;2024-01-25T15:41:16;8.80;99.90
12268;DHT22;6196;48.398;11.736;2024-01-25T15:43:48;8.50;99.90
12268;DHT22;6196;48.398;11.736;2024-01-25T15:46:16;8.40;99.90